sensor_id;sensor_type;location;lat;lon;timestamp;temperature;humidity
670;DHT22;317;48.758;9.302;2022-09-04T00:02:36;16.90;99.90
670;DHT22;317;48.758;9.302;2022-09-04T00:05:12;16.90;99.90
670;DHT22;317;48.758;9.302;2022-09-04T00:07:50;17.00;99.90
670;DHT22;317;48.758;9.302;2022-09-04T00:10:20;17.00;99.90
670;DHT22;317;48.758;9.302;2022-09-04T00:12:53;17.00;99.90
670;DHT22;317;48.758;9.302;2022-09-04T00:15:26;16.90;99.90
670;DHT22;317;48.758;9.302;2022-09-04T00:18:06;16.90;99.90
670;DHT22;317;48.758;9.302;2022-09-04T00:20:39;17.00;99.90
670;DHT22;317;48.758;9.302;2022-09-04T00:23:15;17.00;99.90
670;DHT22;317;48.758;9.302;2022-09-04T00:25:50;17.00;99.90
670;DHT22;317;48.758;9.302;2022-09-04T00:28:29;16.90;99.90
670;DHT22;317;48.758;9.302;2022-09-04T00:31:09;16.90;99.90
670;DHT22;317;48.758;9.302;2022-09-04T00:33:44;16.90;99.90
670;DHT22;317;48.758;9.302;2022-09-04T00:36:15;16.80;99.90
670;DHT22;317;48.758;9.302;2022-09-04T00:38:45;16.80;99.90
670;DHT22;317;48.758;9.302;2022-09-04T00:41:23;16.90;99.90
670;DHT22;317;48.758;9.302;2022-09-04T00:50:15;16.80;99.90
670;DHT22;317;48.758;9.302;2022-09-04T00:53:04;16.80;99.90
670;DHT22;317;48.758;9.302;2022-09-04T00:55:47;16.80;99.90
670;DHT22;317;48.758;9.302;2022-09-04T00:58:25;16.80;99.90
670;DHT22;317;48.758;9.302;2022-09-04T01:00:57;16.70;99.90
670;DHT22;317;48.758;9.302;2022-09-04T01:03:50;16.70;99.90
670;DHT22;317;48.758;9.302;2022-09-04T01:06:28;16.60;99.90
670;DHT22;317;48.758;9.302;2022-09-04T01:12:07;16.70;99.90
670;DHT22;317;48.758;9.302;2022-09-04T01:14:41;16.60;99.90
670;DHT22;317;48.758;9.302;2022-09-04T01:17:15;16.60;99.90
670;DHT22;317;48.758;9.302;2022-09-04T01:19:51;16.60;99.90
670;DHT22;317;48.758;9.302;2022-09-04T01:22:35;16.60;99.90
670;DHT22;317;48.758;9.302;2022-09-04T01:25:15;16.60;99.90
670;DHT22;317;48.758;9.302;2022-09-04T01:27:51;16.50;99.90
670;DHT22;317;48.758;9.302;2022-09-04T01:30:20;16.50;99.90
670;DHT22;317;48.758;9.302;2022-09-04T01:33:00;16.50;99.90
670;DHT22;317;48.758;9.302;2022-09-04T01:35:34;16.50;99.90
670;DHT22;317;48.758;9.302;2022-09-04T01:38:08;16.50;99.90
670;DHT22;317;48.758;9.302;2022-09-04T01:40:41;16.50;99.90
670;DHT22;317;48.758;9.302;2022-09-04T01:43:12;16.50;99.90
670;DHT22;317;48.758;9.302;2022-09-04T01:45:53;16.40;99.90
670;DHT22;317;48.758;9.302;2022-09-04T01:48:26;16.50;99.90
670;DHT22;317;48.758;9.302;2022-09-04T01:51:00;16.40;99.90
670;DHT22;317;48.758;9.302;2022-09-04T01:53:35;16.40;99.90
670;DHT22;317;48.758;9.302;2022-09-04T01:56:11;16.40;99.90
670;DHT22;317;48.758;9.302;2022-09-04T01:58:47;16.30;99.90
670;DHT22;317;48.758;9.302;2022-09-04T02:01:20;16.30;99.90
670;DHT22;317;48.758;9.302;2022-09-04T02:03:56;16.30;99.90
670;DHT22;317;48.758;9.302;2022-09-04T02:06:31;16.30;99.90
670;DHT22;317;48.758;9.302;2022-09-04T02:09:14;16.20;99.90
670;DHT22;317;48.758;9.302;2022-09-04T02:11:47;16.20;99.90
670;DHT22;317;48.758;9.302;2022-09-04T02:14:28;16.20;99.90
670;DHT22;317;48.758;9.302;2022-09-04T02:17:07;16.20;99.90
670;DHT22;317;48.758;9.302;2022-09-04T02:19:58;16.20;99.90
670;DHT22;317;48.758;9.302;2022-09-04T02:22:34;16.20;99.90
670;DHT22;317;48.758;9.302;2022-09-04T02:25:16;16.20;99.90
670;DHT22;317;48.758;9.302;2022-09-04T02:27:53;16.20;99.90
670;DHT22;317;48.758;9.302;2022-09-04T02:30:23;16.10;99.90
670;DHT22;317;48.758;9.302;2022-09-04T02:32:57;16.10;99.90
670;DHT22;317;48.758;9.302;2022-09-04T02:35:29;16.10;99.90
670;DHT22;317;48.758;9.302;2022-09-04T02:38:06;16.00;99.90
670;DHT22;317;48.758;9.302;2022-09-04T02:40:45;16.10;99.90
670;DHT22;317;48.758;9.302;2022-09-04T02:43:25;16.10;99.90
670;DHT22;317;48.758;9.302;2022-09-04T02:46:00;16.10;99.90
670;DHT22;317;48.758;9.302;2022-09-04T02:48:36;16.10;99.90
670;DHT22;317;48.758;9.302;2022-09-04T02:51:17;16.10;99.90
670;DHT22;317;48.758;9.302;2022-09-04T02:53:53;16.00;99.90
670;DHT22;317;48.758;9.302;2022-09-04T02:56:34;16.10;99.90
670;DHT22;317;48.758;9.302;2022-09-04T02:59:27;16.00;99.90
670;DHT22;317;48.758;9.302;2022-09-04T03:01:59;16.10;99.90
670;DHT22;317;48.758;9.302;2022-09-04T03:04:31;16.00;99.90
670;DHT22;317;48.758;9.302;2022-09-04T03:07:08;16.00;99.90
670;DHT22;317;48.758;9.302;2022-09-04T03:09:40;16.10;99.90
670;DHT22;317;48.758;9.302;2022-09-04T03:12:26;16.00;99.90
670;DHT22;317;48.758;9.302;2022-09-04T03:15:02;16.00;99.90
670;DHT22;317;48.758;9.302;2022-09-04T03:17:39;16.00;99.90
670;DHT22;317;48.758;9.302;2022-09-04T03:20:13;15.90;99.90
670;DHT22;317;48.758;9.302;2022-09-04T03:22:46;15.90;99.90
670;DHT22;317;48.758;9.302;2022-09-04T03:25:49;15.90;99.90
670;DHT22;317;48.758;9.302;2022-09-04T03:28:25;15.90;99.90
670;DHT22;317;48.758;9.302;2022-09-04T03:30:56;15.90;99.90
670;DHT22;317;48.758;9.302;2022-09-04T03:33:29;15.90;99.90
670;DHT22;317;48.758;9.302;2022-09-04T03:36:02;15.90;99.90
670;DHT22;317;48.758;9.302;2022-09-04T03:38:37;15.90;99.90
670;DHT22;317;48.758;9.302;2022-09-04T03:41:13;15.90;99.90
670;DHT22;317;48.758;9.302;2022-09-04T03:43:57;15.90;99.90
670;DHT22;317;48.758;9.302;2022-09-04T03:46:40;15.90;99.90
670;DHT22;317;48.758;9.302;2022-09-04T03:49:16;15.90;99.90
670;DHT22;317;48.758;9.302;2022-09-04T03:51:58;15.90;99.90
670;DHT22;317;48.758;9.302;2022-09-04T03:54:38;15.80;99.90
670;DHT22;317;48.758;9.302;2022-09-04T03:57:29;15.80;99.90
670;DHT22;317;48.758;9.302;2022-09-04T04:00:06;15.80;99.90
670;DHT22;317;48.758;9.302;2022-09-04T04:02:53;15.80;99.90
670;DHT22;317;48.758;9.302;2022-09-04T04:05:30;15.70;99.90
670;DHT22;317;48.758;9.302;2022-09-04T04:11:09;15.70;99.90
670;DHT22;317;48.758;9.302;2022-09-04T04:16:37;15.70;99.90
670;DHT22;317;48.758;9.302;2022-09-04T04:19:22;15.70;99.90
670;DHT22;317;48.758;9.302;2022-09-04T04:22:08;15.60;99.90
670;DHT22;317;48.758;9.302;2022-09-04T04:24:54;15.60;99.90
670;DHT22;317;48.758;9.302;2022-09-04T04:27:37;15.60;99.90
670;DHT22;317;48.758;9.302;2022-09-04T04:30:07;15.50;99.90
670;DHT22;317;48.758;9.302;2022-09-04T04:33:05;15.50;99.90
670;DHT22;317;48.758;9.302;2022-09-04T04:35:40;15.50;99.90
670;DHT22;317;48.758;9.302;2022-09-04T04:38:23;15.50;99.90
670;DHT22;317;48.758;9.302;2022-09-04T04:41:21;15.50;99.90
670;DHT22;317;48.758;9.302;2022-09-04T04:43:59;15.50;99.90
670;DHT22;317;48.758;9.302;2022-09-04T04:46:42;15.50;99.90
670;DHT22;317;48.758;9.302;2022-09-04T04:49:26;15.50;99.90
670;DHT22;317;48.758;9.302;2022-09-04T04:52:10;15.50;99.90
670;DHT22;317;48.758;9.302;2022-09-04T04:54:53;15.50;99.90
670;DHT22;317;48.758;9.302;2022-09-04T04:57:29;15.50;99.90
670;DHT22;317;48.758;9.302;2022-09-04T05:00:05;15.50;99.90
670;DHT22;317;48.758;9.302;2022-09-04T05:02:38;15.50;99.90
670;DHT22;317;48.758;9.302;2022-09-04T05:05:12;15.40;99.90
670;DHT22;317;48.758;9.302;2022-09-04T05:07:45;15.40;99.90
670;DHT22;317;48.758;9.302;2022-09-04T05:10:19;15.40;99.90
670;DHT22;317;48.758;9.302;2022-09-04T05:12:54;15.40;99.90
670;DHT22;317;48.758;9.302;2022-09-04T05:15:27;15.40;99.90
670;DHT22;317;48.758;9.302;2022-09-04T05:17:59;15.40;99.90
670;DHT22;317;48.758;9.302;2022-09-04T05:20:38;15.40;99.90
670;DHT22;317;48.758;9.302;2022-09-04T05:23:14;15.50;99.90
670;DHT22;317;48.758;9.302;2022-09-04T05:25:49;15.50;99.90
670;DHT22;317;48.758;9.302;2022-09-04T05:28:27;15.50;99.90
670;DHT22;317;48.758;9.302;2022-09-04T05:31:03;15.50;99.90
670;DHT22;317;48.758;9.302;2022-09-04T05:33:39;15.60;99.90
670;DHT22;317;48.758;9.302;2022-09-04T05:36:14;15.60;99.90
670;DHT22;317;48.758;9.302;2022-09-04T05:38:49;15.60;99.90
670;DHT22;317;48.758;9.302;2022-09-04T05:41:30;15.60;99.90
670;DHT22;317;48.758;9.302;2022-09-04T05:44:20;15.60;99.90
670;DHT22;317;48.758;9.302;2022-09-04T05:47:00;15.70;99.90
670;DHT22;317;48.758;9.302;2022-09-04T05:49:40;15.70;99.90
670;DHT22;317;48.758;9.302;2022-09-04T05:52:33;15.80;99.90
670;DHT22;317;48.758;9.302;2022-09-04T05:55:35;15.80;99.90
670;DHT22;317;48.758;9.302;2022-09-04T05:58:31;15.80;99.90
670;DHT22;317;48.758;9.302;2022-09-04T06:01:10;15.90;99.90
670;DHT22;317;48.758;9.302;2022-09-04T06:03:57;15.90;99.90
670;DHT22;317;48.758;9.302;2022-09-04T06:06:33;15.90;99.90
670;DHT22;317;48.758;9.302;2022-09-04T06:09:17;15.90;99.90
670;DHT22;317;48.758;9.302;2022-09-04T06:12:04;16.00;99.90
670;DHT22;317;48.758;9.302;2022-09-04T06:14:59;16.00;99.90
670;DHT22;317;48.758;9.302;2022-09-04T06:17:37;16.00;99.90
670;DHT22;317;48.758;9.302;2022-09-04T06:20:23;16.10;99.90
670;DHT22;317;48.758;9.302;2022-09-04T06:23:06;16.10;99.90
670;DHT22;317;48.758;9.302;2022-09-04T06:25:58;16.10;99.90
670;DHT22;317;48.758;9.302;2022-09-04T06:29:00;16.10;99.90
670;DHT22;317;48.758;9.302;2022-09-04T06:31:45;16.20;99.90
670;DHT22;317;48.758;9.302;2022-09-04T06:34:20;16.20;99.90
670;DHT22;317;48.758;9.302;2022-09-04T06:37:06;16.30;99.90
670;DHT22;317;48.758;9.302;2022-09-04T06:39:57;16.30;99.90
670;DHT22;317;48.758;9.302;2022-09-04T06:42:39;16.40;99.90
670;DHT22;317;48.758;9.302;2022-09-04T06:45:17;16.40;99.90
670;DHT22;317;48.758;9.302;2022-09-04T06:47:58;16.50;99.90
670;DHT22;317;48.758;9.302;2022-09-04T06:50:30;16.50;99.90
670;DHT22;317;48.758;9.302;2022-09-04T06:53:16;16.60;99.90
670;DHT22;317;48.758;9.302;2022-09-04T06:55:52;16.60;99.90
670;DHT22;317;48.758;9.302;2022-09-04T06:58:40;16.70;99.90
670;DHT22;317;48.758;9.302;2022-09-04T07:01:15;16.80;99.90
670;DHT22;317;48.758;9.302;2022-09-04T07:03:55;16.90;99.90
670;DHT22;317;48.758;9.302;2022-09-04T07:06:30;16.90;99.90
670;DHT22;317;48.758;9.302;2022-09-04T07:09:07;17.00;99.90
670;DHT22;317;48.758;9.302;2022-09-04T07:12:02;17.00;99.90
670;DHT22;317;48.758;9.302;2022-09-04T07:14:47;17.10;99.90
670;DHT22;317;48.758;9.302;2022-09-04T07:17:20;17.10;99.90
670;DHT22;317;48.758;9.302;2022-09-04T07:20:14;17.20;99.90
670;DHT22;317;48.758;9.302;2022-09-04T07:22:55;17.10;99.90
670;DHT22;317;48.758;9.302;2022-09-04T07:25:36;17.20;99.90
670;DHT22;317;48.758;9.302;2022-09-04T07:28:15;17.30;99.90
670;DHT22;317;48.758;9.302;2022-09-04T07:30:50;17.40;99.90
670;DHT22;317;48.758;9.302;2022-09-04T07:33:22;17.50;99.90
670;DHT22;317;48.758;9.302;2022-09-04T07:35:56;17.60;99.90
670;DHT22;317;48.758;9.302;2022-09-04T07:38:30;17.70;99.90
670;DHT22;317;48.758;9.302;2022-09-04T07:41:04;17.70;99.90
670;DHT22;317;48.758;9.302;2022-09-04T07:43:39;17.70;99.90
670;DHT22;317;48.758;9.302;2022-09-04T07:46:13;17.80;99.90
670;DHT22;317;48.758;9.302;2022-09-04T07:48:47;18.00;99.90
670;DHT22;317;48.758;9.302;2022-09-04T07:51:21;18.10;99.90
670;DHT22;317;48.758;9.302;2022-09-04T07:57:15;18.10;99.90
670;DHT22;317;48.758;9.302;2022-09-04T08:00:00;18.20;99.90
670;DHT22;317;48.758;9.302;2022-09-04T08:02:37;18.30;99.90
670;DHT22;317;48.758;9.302;2022-09-04T08:05:19;18.50;99.90
670;DHT22;317;48.758;9.302;2022-09-04T08:10:38;18.50;99.90
670;DHT22;317;48.758;9.302;2022-09-04T08:13:27;18.50;99.90
670;DHT22;317;48.758;9.302;2022-09-04T08:16:05;18.60;99.90
670;DHT22;317;48.758;9.302;2022-09-04T08:18:50;18.80;99.90
670;DHT22;317;48.758;9.302;2022-09-04T08:21:24;18.90;99.90
670;DHT22;317;48.758;9.302;2022-09-04T08:24:16;18.90;99.90
670;DHT22;317;48.758;9.302;2022-09-04T08:26:56;19.10;99.90
670;DHT22;317;48.758;9.302;2022-09-04T08:29:43;19.20;99.90
670;DHT22;317;48.758;9.302;2022-09-04T08:35:11;19.30;99.90
670;DHT22;317;48.758;9.302;2022-09-04T08:37:53;19.40;99.90
670;DHT22;317;48.758;9.302;2022-09-04T08:40:44;19.40;99.90
670;DHT22;317;48.758;9.302;2022-09-04T08:43:31;19.60;99.90
670;DHT22;317;48.758;9.302;2022-09-04T08:52:48;20.00;99.90
670;DHT22;317;48.758;9.302;2022-09-04T08:55:39;20.30;99.90
670;DHT22;317;48.758;9.302;2022-09-04T08:58:30;20.30;99.90
670;DHT22;317;48.758;9.302;2022-09-04T09:01:18;20.50;99.90
670;DHT22;317;48.758;9.302;2022-09-04T09:04:13;20.60;99.90
670;DHT22;317;48.758;9.302;2022-09-04T09:07:12;20.70;99.90
670;DHT22;317;48.758;9.302;2022-09-04T09:10:04;20.90;99.90
670;DHT22;317;48.758;9.302;2022-09-04T09:15:59;21.00;99.90
670;DHT22;317;48.758;9.302;2022-09-04T09:18:34;21.20;99.90
670;DHT22;317;48.758;9.302;2022-09-04T09:21:07;21.30;99.90
670;DHT22;317;48.758;9.302;2022-09-04T09:23:43;21.50;99.90
670;DHT22;317;48.758;9.302;2022-09-04T09:26:23;21.70;99.90
670;DHT22;317;48.758;9.302;2022-09-04T09:29:18;21.80;99.90
670;DHT22;317;48.758;9.302;2022-09-04T09:35:41;22.00;99.90
670;DHT22;317;48.758;9.302;2022-09-04T09:38:44;22.20;99.90
670;DHT22;317;48.758;9.302;2022-09-04T09:44:41;22.40;99.90
670;DHT22;317;48.758;9.302;2022-09-04T09:47:44;22.60;99.90
670;DHT22;317;48.758;9.302;2022-09-04T09:50:40;22.60;99.90
670;DHT22;317;48.758;9.302;2022-09-04T10:09:14;23.90;99.90
670;DHT22;317;48.758;9.302;2022-09-04T10:12:11;24.20;99.90
670;DHT22;317;48.758;9.302;2022-09-04T10:15:07;24.40;99.90
670;DHT22;317;48.758;9.302;2022-09-04T10:27:20;25.20;99.90
670;DHT22;317;48.758;9.302;2022-09-04T10:30:04;25.40;99.90
670;DHT22;317;48.758;9.302;2022-09-04T10:33:01;25.60;99.90
670;DHT22;317;48.758;9.302;2022-09-04T10:35:39;25.90;99.90
670;DHT22;317;48.758;9.302;2022-09-04T10:38:24;26.20;99.90
670;DHT22;317;48.758;9.302;2022-09-04T10:41:15;26.30;99.90
670;DHT22;317;48.758;9.302;2022-09-04T10:44:12;26.50;97.30
670;DHT22;317;48.758;9.302;2022-09-04T10:46:51;26.60;94.00
670;DHT22;317;48.758;9.302;2022-09-04T10:49:43;26.80;94.30
670;DHT22;317;48.758;9.302;2022-09-04T10:55:23;27.20;95.40
670;DHT22;317;48.758;9.302;2022-09-04T10:58:14;27.40;94.20
670;DHT22;317;48.758;9.302;2022-09-04T11:00:53;27.80;91.00
670;DHT22;317;48.758;9.302;2022-09-04T11:03:52;28.10;90.00
670;DHT22;317;48.758;9.302;2022-09-04T11:06:57;28.20;85.30
670;DHT22;317;48.758;9.302;2022-09-04T11:09:50;28.20;83.10
670;DHT22;317;48.758;9.302;2022-09-04T11:15:32;27.70;86.40
670;DHT22;317;48.758;9.302;2022-09-04T11:18:30;27.60;86.70
670;DHT22;317;48.758;9.302;2022-09-04T11:21:23;27.60;88.40
670;DHT22;317;48.758;9.302;2022-09-04T11:24:38;27.30;92.70
670;DHT22;317;48.758;9.302;2022-09-04T11:27:41;27.30;89.10
670;DHT22;317;48.758;9.302;2022-09-04T11:30:17;27.30;91.80
670;DHT22;317;48.758;9.302;2022-09-04T11:33:13;27.30;90.90
670;DHT22;317;48.758;9.302;2022-09-04T11:36:06;27.30;91.70
670;DHT22;317;48.758;9.302;2022-09-04T11:38:59;27.30;92.20
670;DHT22;317;48.758;9.302;2022-09-04T11:44:46;27.40;86.90
670;DHT22;317;48.758;9.302;2022-09-04T11:47:39;27.50;89.80
670;DHT22;317;48.758;9.302;2022-09-04T11:50:33;27.70;88.60
670;DHT22;317;48.758;9.302;2022-09-04T11:53:52;27.60;85.00
670;DHT22;317;48.758;9.302;2022-09-04T11:56:43;27.70;84.00
670;DHT22;317;48.758;9.302;2022-09-04T11:59:39;27.40;81.40
670;DHT22;317;48.758;9.302;2022-09-04T12:05:23;27.20;77.70
670;DHT22;317;48.758;9.302;2022-09-04T12:08:18;27.20;74.80
670;DHT22;317;48.758;9.302;2022-09-04T12:10:57;27.10;76.60
670;DHT22;317;48.758;9.302;2022-09-04T12:13:54;27.00;75.70
670;DHT22;317;48.758;9.302;2022-09-04T12:16:39;27.40;76.30
670;DHT22;317;48.758;9.302;2022-09-04T12:19:46;28.00;71.90
670;DHT22;317;48.758;9.302;2022-09-04T12:25:48;29.40;66.60
670;DHT22;317;48.758;9.302;2022-09-04T12:28:59;29.40;63.90
670;DHT22;317;48.758;9.302;2022-09-04T12:31:54;29.20;64.50
670;DHT22;317;48.758;9.302;2022-09-04T12:34:42;28.90;64.70
670;DHT22;317;48.758;9.302;2022-09-04T12:37:41;28.60;64.20
670;DHT22;317;48.758;9.302;2022-09-04T12:40:29;28.50;68.20
670;DHT22;317;48.758;9.302;2022-09-04T12:43:13;28.30;65.70
670;DHT22;317;48.758;9.302;2022-09-04T12:45:51;28.20;67.90
670;DHT22;317;48.758;9.302;2022-09-04T12:48:27;28.10;67.60
670;DHT22;317;48.758;9.302;2022-09-04T12:51:05;28.10;68.10
670;DHT22;317;48.758;9.302;2022-09-04T12:54:01;28.30;68.30
670;DHT22;317;48.758;9.302;2022-09-04T12:56:38;28.80;66.20
670;DHT22;317;48.758;9.302;2022-09-04T12:59:24;29.50;63.50
670;DHT22;317;48.758;9.302;2022-09-04T13:02:02;30.00;60.60
670;DHT22;317;48.758;9.302;2022-09-04T13:04:38;30.00;59.50
670;DHT22;317;48.758;9.302;2022-09-04T13:07:20;30.00;58.80
670;DHT22;317;48.758;9.302;2022-09-04T13:09:58;30.30;58.50
670;DHT22;317;48.758;9.302;2022-09-04T13:12:35;30.80;57.30
670;DHT22;317;48.758;9.302;2022-09-04T13:15:19;31.00;56.40
670;DHT22;317;48.758;9.302;2022-09-04T13:17:56;31.00;56.30
670;DHT22;317;48.758;9.302;2022-09-04T13:20:37;31.40;55.50
670;DHT22;317;48.758;9.302;2022-09-04T13:23:16;31.90;54.80
670;DHT22;317;48.758;9.302;2022-09-04T13:25:55;32.40;53.00
670;DHT22;317;48.758;9.302;2022-09-04T13:28:39;32.90;52.60
670;DHT22;317;48.758;9.302;2022-09-04T13:31:38;33.70;51.40
670;DHT22;317;48.758;9.302;2022-09-04T13:34:12;34.20;49.00
670;DHT22;317;48.758;9.302;2022-09-04T13:36:49;34.80;48.00
670;DHT22;317;48.758;9.302;2022-09-04T13:39:38;35.20;47.50
670;DHT22;317;48.758;9.302;2022-09-04T13:42:35;35.60;47.10
670;DHT22;317;48.758;9.302;2022-09-04T13:45:09;36.10;45.40
670;DHT22;317;48.758;9.302;2022-09-04T13:47:50;36.10;43.90
670;DHT22;317;48.758;9.302;2022-09-04T13:50:21;36.10;42.70
670;DHT22;317;48.758;9.302;2022-09-04T13:52:53;36.50;42.10
670;DHT22;317;48.758;9.302;2022-09-04T13:55:26;36.50;41.00
670;DHT22;317;48.758;9.302;2022-09-04T13:57:58;36.80;40.40
670;DHT22;317;48.758;9.302;2022-09-04T14:00:28;37.00;39.30
670;DHT22;317;48.758;9.302;2022-09-04T14:03:00;36.80;38.80
670;DHT22;317;48.758;9.302;2022-09-04T14:05:31;36.90;38.60
670;DHT22;317;48.758;9.302;2022-09-04T14:08:01;37.00;38.10
670;DHT22;317;48.758;9.302;2022-09-04T14:10:54;37.20;37.90
670;DHT22;317;48.758;9.302;2022-09-04T14:13:31;37.20;37.10
670;DHT22;317;48.758;9.302;2022-09-04T14:16:04;37.20;36.60
670;DHT22;317;48.758;9.302;2022-09-04T14:18:59;37.10;36.70
670;DHT22;317;48.758;9.302;2022-09-04T14:21:44;37.10;36.60
670;DHT22;317;48.758;9.302;2022-09-04T14:24:21;37.20;36.50
670;DHT22;317;48.758;9.302;2022-09-04T14:26:58;37.30;35.90
670;DHT22;317;48.758;9.302;2022-09-04T14:29:33;37.50;35.40
670;DHT22;317;48.758;9.302;2022-09-04T14:32:07;37.30;35.60
670;DHT22;317;48.758;9.302;2022-09-04T14:34:48;36.90;35.50
670;DHT22;317;48.758;9.302;2022-09-04T14:37:31;37.20;35.50
670;DHT22;317;48.758;9.302;2022-09-04T14:40:05;37.60;35.20
670;DHT22;317;48.758;9.302;2022-09-04T14:42:43;37.40;35.20
670;DHT22;317;48.758;9.302;2022-09-04T14:45:22;37.40;34.80
670;DHT22;317;48.758;9.302;2022-09-04T14:47:58;37.30;35.30
670;DHT22;317;48.758;9.302;2022-09-04T14:50:31;37.30;34.70
670;DHT22;317;48.758;9.302;2022-09-04T14:53:00;37.20;34.20
670;DHT22;317;48.758;9.302;2022-09-04T14:55:31;37.10;34.10
670;DHT22;317;48.758;9.302;2022-09-04T14:58:04;37.50;33.90
670;DHT22;317;48.758;9.302;2022-09-04T15:00:53;37.80;34.20
670;DHT22;317;48.758;9.302;2022-09-04T15:03:25;38.00;33.10
670;DHT22;317;48.758;9.302;2022-09-04T15:05:58;37.80;33.00
670;DHT22;317;48.758;9.302;2022-09-04T15:08:27;38.10;33.00
670;DHT22;317;48.758;9.302;2022-09-04T15:10:58;37.90;33.30
670;DHT22;317;48.758;9.302;2022-09-04T15:13:38;38.20;33.20
670;DHT22;317;48.758;9.302;2022-09-04T15:16:22;38.40;32.90
670;DHT22;317;48.758;9.302;2022-09-04T15:18:54;38.40;32.60
670;DHT22;317;48.758;9.302;2022-09-04T15:21:28;38.30;31.90
670;DHT22;317;48.758;9.302;2022-09-04T15:24:08;38.00;31.80
670;DHT22;317;48.758;9.302;2022-09-04T15:26:41;37.80;32.00
670;DHT22;317;48.758;9.302;2022-09-04T15:29:15;37.70;32.40
670;DHT22;317;48.758;9.302;2022-09-04T15:31:44;38.10;33.80
670;DHT22;317;48.758;9.302;2022-09-04T15:34:18;38.50;32.70
670;DHT22;317;48.758;9.302;2022-09-04T15:36:48;38.60;33.60
670;DHT22;317;48.758;9.302;2022-09-04T15:39:25;38.80;32.90
670;DHT22;317;48.758;9.302;2022-09-04T15:41:54;38.70;33.60
670;DHT22;317;48.758;9.302;2022-09-04T15:44:25;39.00;33.60
670;DHT22;317;48.758;9.302;2022-09-04T15:46:59;39.40;32.80
670;DHT22;317;48.758;9.302;2022-09-04T15:49:41;39.60;32.90
670;DHT22;317;48.758;9.302;2022-09-04T15:52:22;39.30;32.40
670;DHT22;317;48.758;9.302;2022-09-04T15:55:04;39.40;32.20
670;DHT22;317;48.758;9.302;2022-09-04T15:57:46;39.30;31.70
670;DHT22;317;48.758;9.302;2022-09-04T16:00:20;39.30;32.00
670;DHT22;317;48.758;9.302;2022-09-04T16:02:51;39.20;32.80
670;DHT22;317;48.758;9.302;2022-09-04T16:05:28;39.00;32.50
670;DHT22;317;48.758;9.302;2022-09-04T16:08:16;38.80;32.60
670;DHT22;317;48.758;9.302;2022-09-04T16:10:50;38.70;32.30
670;DHT22;317;48.758;9.302;2022-09-04T16:13:32;38.80;32.40
670;DHT22;317;48.758;9.302;2022-09-04T16:16:06;38.60;31.40
670;DHT22;317;48.758;9.302;2022-09-04T16:18:47;38.50;32.00
670;DHT22;317;48.758;9.302;2022-09-04T16:21:23;38.30;32.30
670;DHT22;317;48.758;9.302;2022-09-04T16:23:54;38.30;32.50
670;DHT22;317;48.758;9.302;2022-09-04T16:26:28;38.00;32.50
670;DHT22;317;48.758;9.302;2022-09-04T16:29:00;38.00;32.90
670;DHT22;317;48.758;9.302;2022-09-04T16:31:29;37.80;32.50
670;DHT22;317;48.758;9.302;2022-09-04T16:34:01;37.90;33.10
670;DHT22;317;48.758;9.302;2022-09-04T16:36:33;37.80;33.00
670;DHT22;317;48.758;9.302;2022-09-04T16:39:08;37.90;32.50
670;DHT22;317;48.758;9.302;2022-09-04T16:41:42;37.90;31.80
670;DHT22;317;48.758;9.302;2022-09-04T16:44:17;37.40;32.00
670;DHT22;317;48.758;9.302;2022-09-04T16:46:49;36.90;32.10
670;DHT22;317;48.758;9.302;2022-09-04T16:49:35;36.80;33.10
670;DHT22;317;48.758;9.302;2022-09-04T16:52:42;37.10;32.90
670;DHT22;317;48.758;9.302;2022-09-04T16:55:14;36.70;32.90
670;DHT22;317;48.758;9.302;2022-09-04T16:57:50;36.40;33.30
670;DHT22;317;48.758;9.302;2022-09-04T17:00:19;36.30;34.60
670;DHT22;317;48.758;9.302;2022-09-04T17:02:52;36.10;34.10
670;DHT22;317;48.758;9.302;2022-09-04T17:05:25;35.80;33.30
670;DHT22;317;48.758;9.302;2022-09-04T17:08:03;35.60;34.70
670;DHT22;317;48.758;9.302;2022-09-04T17:10:39;35.40;34.30
670;DHT22;317;48.758;9.302;2022-09-04T17:13:14;35.30;35.10
670;DHT22;317;48.758;9.302;2022-09-04T17:15:50;34.90;36.00
670;DHT22;317;48.758;9.302;2022-09-04T17:18:20;34.60;37.00
670;DHT22;317;48.758;9.302;2022-09-04T17:20:54;34.30;36.80
670;DHT22;317;48.758;9.302;2022-09-04T17:23:26;34.00;37.90
670;DHT22;317;48.758;9.302;2022-09-04T17:26:02;33.70;38.40
670;DHT22;317;48.758;9.302;2022-09-04T17:28:48;33.30;39.10
670;DHT22;317;48.758;9.302;2022-09-04T17:31:22;32.60;40.00
670;DHT22;317;48.758;9.302;2022-09-04T17:33:56;31.90;41.70
670;DHT22;317;48.758;9.302;2022-09-04T17:36:31;31.20;43.60
670;DHT22;317;48.758;9.302;2022-09-04T17:39:08;30.70;45.40
670;DHT22;317;48.758;9.302;2022-09-04T17:41:42;30.10;47.80
670;DHT22;317;48.758;9.302;2022-09-04T17:44:22;29.50;49.40
670;DHT22;317;48.758;9.302;2022-09-04T17:47:02;29.00;51.60
670;DHT22;317;48.758;9.302;2022-09-04T17:49:32;28.50;53.00
670;DHT22;317;48.758;9.302;2022-09-04T17:52:02;28.00;55.00
670;DHT22;317;48.758;9.302;2022-09-04T17:54:36;27.60;58.80
670;DHT22;317;48.758;9.302;2022-09-04T17:57:10;27.20;60.80
670;DHT22;317;48.758;9.302;2022-09-04T17:59:41;26.70;65.50
670;DHT22;317;48.758;9.302;2022-09-04T18:02:12;26.30;67.60
670;DHT22;317;48.758;9.302;2022-09-04T18:04:47;26.00;70.30
670;DHT22;317;48.758;9.302;2022-09-04T18:07:22;25.70;70.10
670;DHT22;317;48.758;9.302;2022-09-04T18:10:08;25.40;72.80
670;DHT22;317;48.758;9.302;2022-09-04T18:12:44;25.10;75.70
670;DHT22;317;48.758;9.302;2022-09-04T18:15:19;24.80;80.40
670;DHT22;317;48.758;9.302;2022-09-04T18:17:51;24.50;82.60
670;DHT22;317;48.758;9.302;2022-09-04T18:20:27;24.30;84.90
670;DHT22;317;48.758;9.302;2022-09-04T18:23:28;24.00;86.00
670;DHT22;317;48.758;9.302;2022-09-04T18:26:06;23.80;90.50
670;DHT22;317;48.758;9.302;2022-09-04T18:28:41;23.60;92.20
670;DHT22;317;48.758;9.302;2022-09-04T18:31:21;23.40;93.10
670;DHT22;317;48.758;9.302;2022-09-04T18:33:58;23.20;94.50
670;DHT22;317;48.758;9.302;2022-09-04T18:36:31;22.90;96.70
670;DHT22;317;48.758;9.302;2022-09-04T18:39:07;22.70;99.90
670;DHT22;317;48.758;9.302;2022-09-04T18:41:51;22.60;99.90
670;DHT22;317;48.758;9.302;2022-09-04T18:44:27;22.40;99.90
670;DHT22;317;48.758;9.302;2022-09-04T18:47:11;22.20;99.90
670;DHT22;317;48.758;9.302;2022-09-04T18:49:38;22.10;99.90
670;DHT22;317;48.758;9.302;2022-09-04T18:52:09;22.00;99.90
670;DHT22;317;48.758;9.302;2022-09-04T18:54:43;21.90;99.90
670;DHT22;317;48.758;9.302;2022-09-04T18:57:21;21.70;99.90
670;DHT22;317;48.758;9.302;2022-09-04T18:59:54;21.60;99.90
670;DHT22;317;48.758;9.302;2022-09-04T19:02:23;21.40;99.90
670;DHT22;317;48.758;9.302;2022-09-04T19:04:51;21.30;99.90
670;DHT22;317;48.758;9.302;2022-09-04T19:07:24;21.20;99.90
670;DHT22;317;48.758;9.302;2022-09-04T19:10:10;21.10;99.90
670;DHT22;317;48.758;9.302;2022-09-04T19:12:44;20.90;99.90
670;DHT22;317;48.758;9.302;2022-09-04T19:15:45;20.80;99.90
670;DHT22;317;48.758;9.302;2022-09-04T19:18:21;20.80;99.90
670;DHT22;317;48.758;9.302;2022-09-04T19:20:55;20.70;99.90
670;DHT22;317;48.758;9.302;2022-09-04T19:23:27;20.60;99.90